Lansing, New York
Current Conditions -  °F | °C
As of 8:56 AM on Thursday 27 Nov 2014 (Local Time) from KITH Reporting Station
Light Snow Light Snow  
Wind Chill: 18°   Ceiling: 700
Heat Index: 27°   Visibility: 4mi
Dew Point: 25°   Wind: 9mph
Humidity: 92%   Direction: 330°NNW
Pressure: 30.01"   Gusts: NA
Location:  42.48°N, 76.48°W
Report Text: KITH 271356Z 33008KT 4SM -SN BR BKN007 OVC023 M03/M04 A3001 RMK AO2 T10271038 P0001 SLP178
Loading
Personal Weather Stations






























Interactive Weather Map New forecast layout! Learn more

10-Day Weather Forecast

Advertisements
Track Severe Weather on mobile